createdAt,value
2022-09-12T00:02:26.162Z,11.00
2022-09-12T00:04:54.573Z,7.43
2022-09-12T00:07:23.665Z,9.13
2022-09-12T00:09:53.401Z,6.55
2022-09-12T00:12:22.511Z,7.00
2022-09-12T00:14:51.204Z,5.80
2022-09-12T00:17:21.671Z,10.50
2022-09-12T00:19:50.055Z,9.90
2022-09-12T00:22:18.862Z,43.55
2022-09-12T00:24:48.709Z,136.82
2022-09-12T00:27:17.318Z,17.25
2022-09-12T00:29:45.981Z,7.72
2022-09-12T00:32:14.358Z,7.60
2022-09-12T00:34:42.844Z,9.40
2022-09-12T00:37:12.997Z,6.45
2022-09-12T00:39:41.469Z,8.10
2022-09-12T00:42:10.527Z,10.68
2022-09-12T00:44:39.159Z,9.60
2022-09-12T00:47:15.169Z,8.18
2022-09-12T00:50:09.150Z,9.60
2022-09-12T00:52:45.392Z,18.63
2022-09-12T00:55:21.093Z,10.80
2022-09-12T00:58:08.637Z,7.82
2022-09-12T01:00:38.594Z,20.65
2022-09-12T01:03:16.846Z,9.68
2022-09-12T01:06:08.916Z,8.65
2022-09-12T01:08:38.161Z,8.40
2022-09-12T01:11:10.051Z,9.18
2022-09-12T01:13:38.513Z,7.50
2022-09-12T01:16:10.978Z,10.77
2022-09-12T01:18:59.445Z,10.80
2022-09-12T01:22:00.885Z,5.97
2022-09-12T01:24:53.573Z,7.97
2022-09-12T01:27:46.455Z,5.47
2022-09-12T01:30:31.590Z,5.97
2022-09-12T01:33:27.964Z,6.47
2022-09-12T01:36:13.000Z,6.93
2022-09-12T01:38:41.846Z,5.45
2022-09-12T01:41:37.202Z,8.88
2022-09-12T01:44:32.445Z,8.43
2022-09-12T01:47:19.858Z,9.73
2022-09-12T01:50:01.864Z,8.18
2022-09-12T01:52:39.562Z,7.80
2022-09-12T01:55:38.967Z,8.10
2022-09-12T01:58:30.381Z,7.93
2022-09-12T02:01:08.824Z,7.20
2022-09-12T02:04:10.844Z,5.35
2022-09-12T02:07:00.301Z,8.27
2022-09-12T02:09:59.803Z,8.35
2022-09-12T02:12:34.434Z,7.82
2022-09-12T02:15:07.898Z,9.40
2022-09-12T02:17:42.749Z,6.00
2022-09-12T02:20:44.031Z,8.17
2022-09-12T02:23:15.091Z,5.70
2022-09-12T02:25:49.068Z,15.07
2022-09-12T02:28:42.030Z,7.45
2022-09-12T02:31:46.629Z,5.85
2022-09-12T02:34:15.181Z,8.48
2022-09-12T02:37:00.564Z,7.88
2022-09-12T02:39:28.998Z,8.38
2022-09-12T02:41:59.688Z,8.63
2022-09-12T02:44:30.074Z,6.88
2022-09-12T02:47:09.143Z,4.88
2022-09-12T02:49:37.947Z,8.57
2022-09-12T02:52:07.522Z,7.82
2022-09-12T02:54:37.884Z,9.32
2022-09-12T02:57:18.509Z,8.30
2022-09-12T02:59:57.294Z,11.70
2022-09-12T03:02:52.947Z,5.80
2022-09-12T03:05:32.021Z,6.20
2022-09-12T03:08:32.207Z,7.68
2022-09-12T03:11:02.592Z,13.85
2022-09-12T03:13:32.317Z,8.25
2022-09-12T03:16:39.566Z,6.43
2022-09-12T03:19:37.229Z,8.80
2022-09-12T03:22:24.708Z,10.38
2022-09-12T03:25:09.724Z,7.32
2022-09-12T03:27:58.961Z,7.40
2022-09-12T03:30:28.658Z,6.80
2022-09-12T03:33:00.355Z,8.88
2022-09-12T03:35:29.436Z,11.30
2022-09-12T03:37:57.683Z,14.20
2022-09-12T03:40:26.248Z,13.55
2022-09-12T03:42:55.123Z,43.67
2022-09-12T03:45:23.353Z,185.07
2022-09-12T03:47:54.764Z,15.20
2022-09-12T03:50:24.677Z,15.50
2022-09-12T03:52:53.786Z,8.43
2022-09-12T03:55:22.628Z,7.93
2022-09-12T03:57:58.547Z,11.82
2022-09-12T04:00:27.887Z,8.80
2022-09-12T04:02:59.263Z,106.30
2022-09-12T04:05:27.888Z,57.28
2022-09-12T04:08:02.552Z,45.13
2022-09-12T04:10:34.501Z,20.85
2022-09-12T04:13:08.678Z,9.90
2022-09-12T04:15:43.326Z,72.82
2022-09-12T04:18:18.325Z,62.80
2022-09-12T04:20:47.206Z,16.27
2022-09-12T04:23:15.599Z,9.02
2022-09-12T04:25:44.696Z,6.28
2022-09-12T04:28:13.307Z,19.85
2022-09-12T04:30:41.668Z,22.65
2022-09-12T04:33:10.106Z,19.73
2022-09-12T04:35:39.635Z,29.25
2022-09-12T04:38:08.564Z,28.90
2022-09-12T04:40:36.753Z,20.55
2022-09-12T04:43:09.232Z,20.33
2022-09-12T04:45:39.910Z,19.30
2022-09-12T04:48:09.780Z,13.95
2022-09-12T04:50:38.643Z,14.80
2022-09-12T04:53:07.650Z,13.73
2022-09-12T04:55:36.552Z,10.75
2022-09-12T04:58:04.756Z,10.30
2022-09-12T05:00:33.612Z,15.07
2022-09-12T05:03:03.174Z,14.10
2022-09-12T05:05:31.477Z,16.88
2022-09-12T05:08:00.740Z,11.88
2022-09-12T05:10:29.701Z,26.50
2022-09-12T05:12:58.663Z,15.20
2022-09-12T05:15:26.950Z,24.73
2022-09-12T05:17:55.372Z,28.95
2022-09-12T05:20:24.000Z,38.50
2022-09-12T05:22:55.219Z,12.55
2022-09-12T05:25:24.827Z,14.90
2022-09-12T05:27:53.508Z,10.27
2022-09-12T05:30:22.213Z,9.48
2022-09-12T05:32:59.148Z,7.32
2022-09-12T05:35:27.821Z,8.65
2022-09-12T05:37:56.392Z,5.63
2022-09-12T05:40:25.788Z,4.70
2022-09-12T05:42:55.063Z,4.55
2022-09-12T05:45:24.753Z,7.85
2022-09-12T05:48:01.238Z,9.52
2022-09-12T05:50:30.820Z,4.97
2022-09-12T05:52:59.558Z,4.40
2022-09-12T05:55:28.086Z,10.77
2022-09-12T05:57:59.795Z,4.25
2022-09-12T06:00:32.917Z,5.63
2022-09-12T06:03:04.477Z,4.10
2022-09-12T06:05:34.180Z,3.10
2022-09-12T06:08:02.530Z,9.13
2022-09-12T06:10:35.451Z,6.22
2022-09-12T06:13:04.503Z,3.92
2022-09-12T06:15:33.111Z,12.30
2022-09-12T06:18:01.698Z,7.82
2022-09-12T06:20:35.708Z,4.22
2022-09-12T06:23:05.085Z,6.32
2022-09-12T06:25:33.314Z,5.30
2022-09-12T06:28:02.602Z,3.05
2022-09-12T06:30:33.723Z,5.00
2022-09-12T06:33:01.995Z,4.95
2022-09-12T06:35:30.642Z,5.15
2022-09-12T06:40:34.392Z,3.33
2022-09-12T06:43:03.900Z,2.72
2022-09-12T06:45:35.680Z,4.80
2022-09-12T06:48:04.762Z,4.28
2022-09-12T06:50:35.478Z,5.75
2022-09-12T06:53:05.388Z,2.97
2022-09-12T06:55:37.144Z,4.78
2022-09-12T06:58:08.600Z,3.72
2022-09-12T07:00:37.331Z,5.47
2022-09-12T07:03:05.555Z,2.38
2022-09-12T07:05:36.130Z,20.08
2022-09-12T07:08:04.619Z,3.78
2022-09-12T07:10:33.387Z,2.92
2022-09-12T07:13:02.069Z,3.13
2022-09-12T07:15:30.361Z,2.03
2022-09-12T07:17:59.932Z,4.45
2022-09-12T07:20:35.351Z,4.43
2022-09-12T07:23:04.348Z,3.72
2022-09-12T07:25:33.147Z,2.53
2022-09-12T07:28:02.651Z,2.95
2022-09-12T07:30:31.416Z,4.93
2022-09-12T07:33:00.971Z,4.15
2022-09-12T07:35:33.657Z,2.03
2022-09-12T07:38:03.470Z,5.53
2022-09-12T07:40:32.274Z,2.92
2022-09-12T07:43:01.648Z,4.30
2022-09-12T07:45:33.748Z,2.42
2022-09-12T07:48:03.164Z,7.82
2022-09-12T07:50:33.622Z,2.25
2022-09-12T07:53:03.991Z,2.47
2022-09-12T07:55:32.888Z,6.18
2022-09-12T07:58:01.418Z,2.45
2022-09-12T08:00:36.072Z,4.30
2022-09-12T08:03:04.627Z,5.75
2022-09-12T08:05:33.361Z,11.45
2022-09-12T08:08:01.952Z,4.03
2022-09-12T08:10:32.089Z,4.60
2022-09-12T08:13:01.054Z,2.95
2022-09-12T08:15:29.561Z,2.28
2022-09-12T08:18:00.145Z,2.35
2022-09-12T08:20:30.514Z,2.03
2022-09-12T08:23:04.055Z,8.45
2022-09-12T08:25:32.540Z,2.20
2022-09-12T08:31:21.582Z,6.53
2022-09-12T08:34:10.926Z,6.80
2022-09-12T08:36:49.622Z,3.63
2022-09-12T08:45:49.464Z,5.15
2022-09-12T08:48:18.152Z,4.13
2022-09-12T08:50:49.918Z,1.92
2022-09-12T08:53:31.616Z,4.85
2022-09-12T08:56:16.854Z,17.58
2022-09-12T08:58:53.394Z,8.77
2022-09-12T09:01:54.438Z,3.50
2022-09-12T09:07:56.193Z,3.90
2022-09-12T09:11:25.099Z,7.45
2022-09-12T09:17:39.028Z,2.83
2022-09-12T09:20:43.559Z,5.55
2022-09-12T09:23:57.652Z,3.22
2022-09-12T09:26:59.492Z,5.07
2022-09-12T09:29:51.043Z,6.57
2022-09-12T09:32:34.874Z,6.03
2022-09-12T09:38:23.381Z,5.65
2022-09-12T09:41:39.066Z,4.20
2022-09-12T09:47:28.653Z,1.95
2022-09-12T09:50:00.254Z,3.28
2022-09-12T09:52:33.815Z,3.35
2022-09-12T09:55:06.777Z,2.63
2022-09-12T09:57:54.854Z,2.70
2022-09-12T10:00:38.518Z,3.45
2022-09-12T10:03:46.752Z,3.03
2022-09-12T10:06:39.783Z,3.88
2022-09-12T10:09:24.603Z,1.85
2022-09-12T10:12:28.551Z,8.07
2022-09-12T10:15:02.346Z,2.13
2022-09-12T10:17:42.197Z,4.47
2022-09-12T10:20:30.472Z,8.98
2022-09-12T10:23:00.845Z,6.88
2022-09-12T10:25:31.071Z,9.32
2022-09-12T10:28:01.667Z,4.38
2022-09-12T10:30:30.904Z,5.03
2022-09-12T10:33:07.085Z,7.88
2022-09-12T10:35:47.716Z,5.80
2022-09-12T10:38:34.525Z,6.78
2022-09-12T10:41:24.991Z,4.32
2022-09-12T10:43:53.673Z,6.30
2022-09-12T10:46:28.930Z,8.57
2022-09-12T10:49:23.518Z,5.30
2022-09-12T10:51:54.250Z,10.95
2022-09-12T10:54:27.056Z,8.75
2022-09-12T10:57:17.180Z,7.82
2022-09-12T10:59:56.631Z,14.13
2022-09-12T11:02:30.026Z,6.68
2022-09-12T11:05:18.365Z,9.05
2022-09-12T11:07:58.524Z,7.55
2022-09-12T11:10:50.393Z,7.40
2022-09-12T11:13:24.388Z,5.15
2022-09-12T11:15:53.565Z,6.93
2022-09-12T11:18:50.120Z,7.47
2022-09-12T11:21:36.720Z,3.97
2022-09-12T11:24:35.236Z,5.72
2022-09-12T11:27:16.751Z,8.23
2022-09-12T11:30:08.604Z,3.38
2022-09-12T11:32:37.320Z,5.72
2022-09-12T11:35:08.217Z,2.97
2022-09-12T11:38:18.576Z,5.82
2022-09-12T11:41:00.192Z,3.78
2022-09-12T11:43:49.228Z,1.77
2022-09-12T11:46:31.929Z,3.63
2022-09-12T11:49:15.770Z,2.47
2022-09-12T11:51:54.000Z,4.03
2022-09-12T11:55:01.153Z,4.18
2022-09-12T11:57:53.827Z,3.22
2022-09-12T12:00:45.690Z,5.00
2022-09-12T12:03:31.432Z,3.20
2022-09-12T12:06:00.674Z,2.38
2022-09-12T12:08:32.013Z,3.35
2022-09-12T12:11:05.077Z,2.05
2022-09-12T12:13:51.248Z,5.97
2022-09-12T12:16:33.386Z,3.58
2022-09-12T12:19:10.782Z,4.80
2022-09-12T12:21:52.898Z,5.53
2022-09-12T12:24:24.368Z,5.88
2022-09-12T12:27:03.425Z,3.92
2022-09-12T12:29:50.454Z,6.55
2022-09-12T12:32:19.354Z,3.10
2022-09-12T12:34:49.946Z,10.23
2022-09-12T12:37:30.069Z,5.53
2022-09-12T12:40:34.243Z,2.35
2022-09-12T12:43:06.267Z,9.90
2022-09-12T12:45:38.241Z,5.88
2022-09-12T12:48:16.894Z,5.13
2022-09-12T12:50:46.894Z,5.43
2022-09-12T12:53:29.106Z,7.53
2022-09-12T12:55:58.396Z,6.03
2022-09-12T12:58:40.163Z,4.50
2022-09-12T13:01:10.357Z,9.07
2022-09-12T13:03:39.650Z,8.00
2022-09-12T13:06:11.584Z,4.85
2022-09-12T13:08:44.299Z,18.00
2022-09-12T13:11:17.859Z,7.63
2022-09-12T13:13:52.310Z,9.88
2022-09-12T13:16:35.869Z,4.25
2022-09-12T13:19:24.161Z,3.28
2022-09-12T13:22:03.881Z,8.23
2022-09-12T13:24:35.587Z,12.63
2022-09-12T13:27:04.263Z,7.88
2022-09-12T13:29:38.788Z,7.28
2022-09-12T13:32:14.160Z,9.57
2022-09-12T13:35:11.618Z,5.22
2022-09-12T13:37:51.361Z,10.70
2022-09-12T13:40:55.381Z,4.32
2022-09-12T13:43:38.030Z,8.75
2022-09-12T13:46:10.169Z,4.18
2022-09-12T13:48:41.989Z,21.25
2022-09-12T13:51:30.232Z,27.90
2022-09-12T13:54:05.656Z,25.45
2022-09-12T13:56:34.731Z,25.95
2022-09-12T13:59:04.628Z,11.35
2022-09-12T14:01:40.634Z,24.65
2022-09-12T14:04:34.004Z,14.32
2022-09-12T14:07:26.694Z,8.82
2022-09-12T14:09:57.881Z,19.45
2022-09-12T14:12:41.786Z,32.58
2022-09-12T14:15:19.966Z,9.73
2022-09-12T14:17:52.197Z,12.43
2022-09-12T14:20:23.412Z,13.05
2022-09-12T14:22:53.989Z,4.97
2022-09-12T14:25:32.631Z,12.25
2022-09-12T14:28:01.239Z,19.83
2022-09-12T14:30:36.393Z,4.65
2022-09-12T14:33:10.504Z,6.35
2022-09-12T14:36:07.965Z,5.20
2022-09-12T14:38:44.260Z,14.95
2022-09-12T14:41:16.919Z,8.70
2022-09-12T14:43:48.998Z,12.80
2022-09-12T14:46:25.343Z,7.53
2022-09-12T14:49:02.150Z,15.20
2022-09-12T14:51:36.837Z,11.48
2022-09-12T14:54:05.756Z,12.27
2022-09-12T14:56:53.193Z,6.97
2022-09-12T14:59:38.603Z,7.97
2022-09-12T15:02:25.730Z,2.85
2022-09-12T15:05:15.715Z,12.32
2022-09-12T15:08:02.771Z,10.07
2022-09-12T15:10:40.351Z,5.53
2022-09-12T15:13:11.609Z,3.50
2022-09-12T15:15:46.666Z,9.70
2022-09-12T15:18:18.936Z,5.88
2022-09-12T15:20:50.301Z,3.78
2022-09-12T15:23:51.028Z,3.97
2022-09-12T15:26:28.168Z,3.15
2022-09-12T15:29:02.164Z,6.32
2022-09-12T15:31:32.191Z,5.47
2022-09-12T15:34:02.333Z,6.95
2022-09-12T15:36:31.981Z,4.97
2022-09-12T15:39:03.887Z,11.35
2022-09-12T15:41:34.660Z,3.05
2022-09-12T15:44:10.517Z,5.55
2022-09-12T15:46:39.283Z,8.63
2022-09-12T15:49:07.942Z,8.70
2022-09-12T15:51:36.853Z,15.40
2022-09-12T15:54:05.547Z,4.85
2022-09-12T15:56:34.346Z,4.47
2022-09-12T15:59:02.662Z,7.30
2022-09-12T16:01:32.800Z,17.10
2022-09-12T16:04:04.091Z,7.50
2022-09-12T16:06:37.170Z,3.72
2022-09-12T16:09:06.600Z,4.35
2022-09-12T16:11:36.539Z,60.63
2022-09-12T16:14:06.235Z,5.85
2022-09-12T16:16:35.789Z,18.77
2022-09-12T16:19:20.081Z,28.67
2022-09-12T16:21:49.176Z,8.82
2022-09-12T16:24:33.385Z,11.77
2022-09-12T16:27:06.079Z,10.75
2022-09-12T16:29:34.987Z,12.65
2022-09-12T16:32:04.044Z,19.17
2022-09-12T16:34:33.260Z,11.52
2022-09-12T16:37:03.231Z,11.63
2022-09-12T16:39:32.656Z,28.65
2022-09-12T16:42:01.071Z,21.98
2022-09-12T16:44:30.645Z,10.35
2022-09-12T16:46:58.807Z,30.65
2022-09-12T16:49:31.903Z,48.38
2022-09-12T16:52:01.347Z,79.50
2022-09-12T16:54:30.323Z,48.80
2022-09-12T16:56:59.783Z,23.70
2022-09-12T16:59:40.689Z,35.90
2022-09-12T17:02:30.297Z,20.45
2022-09-12T17:05:04.960Z,47.30
2022-09-12T17:07:41.229Z,26.33
2022-09-12T17:10:15.386Z,21.10
2022-09-12T17:13:16.833Z,20.85
2022-09-12T17:16:01.814Z,9.40
2022-09-12T17:18:31.177Z,19.45
2022-09-12T17:21:01.722Z,22.90
2022-09-12T17:23:31.171Z,16.58
2022-09-12T17:26:03.402Z,26.65
2022-09-12T17:29:14.040Z,14.48
2022-09-12T17:31:53.307Z,25.67
2022-09-12T17:34:50.404Z,50.35
2022-09-12T17:37:24.780Z,108.97
2022-09-12T17:39:56.043Z,83.55
2022-09-12T17:50:31.198Z,43.65
2022-09-12T17:56:56.520Z,31.45
2022-09-12T17:59:51.966Z,16.73
2022-09-12T18:02:33.209Z,29.67
2022-09-12T18:05:05.432Z,56.65
2022-09-12T18:07:39.919Z,89.07
2022-09-12T18:10:12.536Z,40.55
2022-09-12T18:12:41.560Z,56.05
2022-09-12T18:15:11.304Z,68.03
2022-09-12T18:17:42.331Z,68.20
2022-09-12T18:20:11.394Z,53.70
2022-09-12T18:22:39.795Z,32.92
2022-09-12T18:25:08.704Z,19.60
2022-09-12T18:27:37.896Z,16.48
2022-09-12T18:30:22.299Z,26.15
2022-09-12T18:32:51.615Z,23.35
2022-09-12T18:35:19.956Z,127.25
2022-09-12T18:37:48.914Z,105.40
2022-09-12T18:40:18.620Z,138.48
2022-09-12T18:42:47.981Z,73.75
2022-09-12T18:45:17.509Z,64.55
2022-09-12T18:47:46.494Z,67.30
2022-09-12T18:50:14.819Z,45.78
2022-09-12T18:52:43.908Z,75.63
2022-09-12T18:55:13.103Z,69.40
2022-09-12T18:57:43.329Z,60.60
2022-09-12T19:00:16.094Z,55.40
2022-09-12T19:02:46.132Z,43.42
2022-09-12T19:05:15.183Z,35.97
2022-09-12T19:07:44.639Z,30.85
2022-09-12T19:10:13.128Z,62.20
2022-09-12T19:12:41.825Z,88.72
2022-09-12T19:15:10.435Z,74.10
2022-09-12T19:17:39.849Z,78.43
2022-09-12T19:20:08.880Z,73.25
2022-09-12T19:22:37.544Z,97.00
2022-09-12T19:25:22.128Z,103.70
2022-09-12T19:27:50.748Z,99.95
2022-09-12T19:30:19.676Z,93.90
2022-09-12T19:32:47.987Z,87.80
2022-09-12T19:35:16.709Z,103.55
2022-09-12T19:37:45.614Z,105.65
2022-09-12T19:40:16.474Z,95.45
2022-09-12T19:42:44.909Z,96.03
2022-09-12T19:45:16.502Z,81.82
2022-09-12T19:47:44.539Z,84.63
2022-09-12T19:50:14.171Z,93.30
2022-09-12T19:52:42.879Z,85.63
2022-09-12T19:55:12.578Z,92.13
2022-09-12T19:57:41.255Z,79.68
2022-09-12T20:00:11.504Z,63.08
2022-09-12T20:02:40.313Z,64.50
2022-09-12T20:05:08.755Z,59.60
2022-09-12T20:07:39.450Z,49.53
2022-09-12T20:10:08.370Z,55.67
2022-09-12T20:12:39.810Z,62.92
2022-09-12T20:15:09.105Z,53.40
2022-09-12T20:17:38.104Z,50.15
2022-09-12T20:20:07.842Z,66.80
2022-09-12T20:22:39.872Z,59.20
2022-09-12T20:25:08.954Z,61.42
2022-09-12T20:27:37.623Z,53.00
2022-09-12T20:30:06.251Z,52.00
2022-09-12T20:32:37.383Z,56.20
2022-09-12T20:35:06.993Z,44.65
2022-09-12T20:37:36.072Z,49.53
2022-09-12T20:40:05.994Z,59.65
2022-09-12T20:42:34.426Z,49.78
2022-09-12T20:45:03.304Z,50.97
2022-09-12T20:47:31.872Z,50.50
2022-09-12T20:50:02.235Z,49.60
2022-09-12T20:52:32.552Z,48.75
2022-09-12T20:55:00.919Z,45.58
2022-09-12T20:57:29.476Z,46.95
2022-09-12T20:59:57.711Z,58.13
2022-09-12T21:02:26.701Z,71.97
2022-09-12T21:04:57.844Z,70.30
2022-09-12T21:07:26.333Z,63.17
2022-09-12T21:09:54.920Z,52.25
2022-09-12T21:15:11.097Z,66.13
2022-09-12T21:18:00.484Z,81.70
2022-09-12T21:20:28.925Z,107.53
2022-09-12T21:22:57.629Z,88.68
2022-09-12T21:25:26.245Z,67.53
2022-09-12T21:27:54.643Z,60.78
2022-09-12T21:30:25.059Z,56.28
2022-09-12T21:33:07.117Z,55.75
2022-09-12T21:35:36.913Z,53.13
2022-09-12T21:38:05.200Z,49.50
2022-09-12T21:40:33.767Z,41.88
2022-09-12T21:43:03.285Z,47.13
2022-09-12T21:45:32.958Z,39.88
2022-09-12T21:48:02.048Z,42.55
2022-09-12T21:50:30.875Z,41.92
2022-09-12T21:52:59.178Z,39.42
2022-09-12T21:55:27.553Z,39.60
2022-09-12T21:57:57.611Z,37.58
2022-09-12T22:00:27.760Z,36.80
2022-09-12T22:02:56.668Z,36.00
2022-09-12T22:05:25.940Z,36.00
2022-09-12T22:07:54.319Z,28.23
2022-09-12T22:10:22.930Z,23.13
2022-09-12T22:12:54.872Z,20.58
2022-09-12T22:15:39.919Z,25.92
2022-09-12T22:18:15.218Z,34.80
2022-09-12T22:20:43.578Z,38.35
2022-09-12T22:23:31.954Z,34.55
2022-09-12T22:26:02.876Z,38.67
2022-09-12T22:28:32.384Z,33.45
2022-09-12T22:31:00.686Z,34.72
2022-09-12T22:33:35.869Z,35.22
2022-09-12T22:36:04.568Z,39.95
2022-09-12T22:38:33.718Z,35.17
2022-09-12T22:41:10.808Z,46.95
2022-09-12T22:43:41.030Z,36.95
2022-09-12T22:46:12.244Z,39.45
2022-09-12T22:48:41.476Z,49.40
2022-09-12T22:51:10.819Z,33.75
2022-09-12T22:53:39.395Z,30.77
2022-09-12T22:56:07.974Z,40.65
2022-09-12T22:58:38.817Z,36.00
2022-09-12T23:01:07.249Z,35.75
2022-09-12T23:03:37.479Z,29.15
2022-09-12T23:06:07.236Z,33.92
2022-09-12T23:08:43.094Z,31.02
2022-09-12T23:11:14.706Z,28.27
2022-09-12T23:13:45.223Z,29.08
2022-09-12T23:16:22.210Z,26.60
2022-09-12T23:18:51.964Z,29.88
2022-09-12T23:21:22.809Z,27.17
2022-09-12T23:23:52.162Z,32.38
2022-09-12T23:26:25.108Z,30.70
2022-09-12T23:28:55.527Z,27.60
2022-09-12T23:31:26.305Z,24.42
2022-09-12T23:33:56.307Z,25.27
2022-09-12T23:36:27.274Z,21.65
2022-09-12T23:38:55.855Z,23.10
2022-09-12T23:41:25.005Z,38.33
2022-09-12T23:43:55.066Z,25.05
2022-09-12T23:46:25.339Z,23.73
2022-09-12T23:48:55.807Z,20.85
2022-09-12T23:51:24.512Z,18.77
2022-09-12T23:53:53.978Z,19.60
2022-09-12T23:56:22.326Z,20.58
2022-09-12T23:58:51.105Z,21.73
